Time;durP1;ratioP1;P1;durP2;ratioP2;P2;SDS_P1;SDS_P2;PMS_P1;PMS_P2;Temp;Humidity;BMP_temperature;BMP_pressure;BME280_temperature;BME280_humidity;BME280_pressure;Samples;Min_cycle;Max_cycle;Signal;HPM_P1;HPM_P2
2022/05/09 00:01:56;;;;;;;12.05;3.70;;;;;;;10.01;66.00;102931.00;4962538;28;20666;-59
2022/05/09 00:04:23;;;;;;;11.10;3.72;;;;;;;9.99;65.76;102924.88;4983937;28;20308;-60
2022/05/09 00:06:50;;;;;;;10.88;3.42;;;;;;;9.96;65.78;102930.81;4959377;28;20580;-60
2022/05/09 00:09:16;;;;;;;10.95;3.70;;;;;;;9.95;66.07;102935.94;4962186;28;20335;-60
2022/05/09 00:11:42;;;;;;;16.20;3.90;;;;;;;9.93;65.81;102925.47;4972051;28;20038;-60
2022/05/09 00:14:07;;;;;;;9.98;3.70;;;;;;;9.95;65.99;102936.81;4973694;28;20057;-59
2022/05/09 00:16:36;;;;;;;14.18;4.00;;;;;;;9.94;65.97;102929.81;4960181;28;20130;-57
2022/05/09 00:19:03;;;;;;;10.43;3.30;;;;;;;9.91;66.22;102923.59;4971952;28;20133;-61
2022/05/09 00:21:40;;;;;;;11.23;3.50;;;;;;;9.90;65.79;102917.47;4973947;28;20049;-60
2022/05/09 00:24:08;;;;;;;11.57;3.83;;;;;;;9.87;65.67;102913.84;4975493;28;20045;-59
2022/05/09 00:26:34;;;;;;;11.65;3.47;;;;;;;9.88;65.95;102918.25;4976575;28;20304;-59
2022/05/09 00:29:02;;;;;;;11.50;3.75;;;;;;;9.83;66.04;102912.78;4971661;28;20556;-58
2022/05/09 00:31:28;;;;;;;12.95;3.90;;;;;;;9.84;66.05;102911.06;4977931;28;20083;-60
2022/05/09 00:33:55;;;;;;;13.80;3.67;;;;;;;9.83;65.83;102910.19;4971709;28;20053;-61
2022/05/09 00:36:21;;;;;;;12.15;3.63;;;;;;;9.76;66.08;102908.97;4971395;28;20067;-60
2022/05/09 00:38:47;;;;;;;15.60;3.75;;;;;;;9.83;65.91;102910.19;4975292;28;20057;-60
2022/05/09 00:41:28;;;;;;;12.18;3.83;;;;;;;9.74;66.41;102912.34;4971579;28;20080;-60
2022/05/09 00:44:06;;;;;;;12.95;3.80;;;;;;;9.72;66.22;102913.97;4969113;28;20054;-59
2022/05/09 00:46:33;;;;;;;13.75;3.50;;;;;;;9.65;66.71;102907.56;4972106;28;20034;-59
2022/05/09 00:49:05;;;;;;;9.75;3.50;;;;;;;9.64;66.84;102907.47;4969948;28;20509;-60
2022/05/09 00:51:33;;;;;;;10.55;3.55;;;;;;;9.57;67.14;102906.31;4984917;28;20046;-60
2022/05/09 00:54:02;;;;;;;13.80;4.07;;;;;;;9.56;67.12;102908.84;4971521;28;20151;-60
2022/05/09 00:56:35;;;;;;;7.85;3.42;;;;;;;9.54;67.13;102911.34;4985669;28;20485;-61
2022/05/09 00:59:07;;;;;;;13.98;3.75;;;;;;;9.51;66.96;102900.81;4968312;28;20068;-59
2022/05/09 01:01:33;;;;;;;12.30;3.95;;;;;;;9.47;67.85;102900.56;4978886;28;20674;-59
2022/05/09 01:04:33;;;;;;;14.10;4.05;;;;;;;9.40;67.87;102901.06;4970776;28;20387;-59
2022/05/09 01:06:58;;;;;;;15.55;3.72;;;;;;;9.40;68.43;102893.25;4956772;28;20049;-58
2022/05/09 01:09:26;;;;;;;15.30;4.43;;;;;;;9.38;68.31;102905.31;4967803;28;20041;-60
2022/05/09 01:11:51;;;;;;;10.57;3.60;;;;;;;9.34;67.99;102897.34;4966235;28;20045;-59
2022/05/09 01:14:23;;;;;;;10.85;3.67;;;;;;;9.33;68.22;102894.69;4978872;28;20038;-58
2022/05/09 01:16:49;;;;;;;11.32;3.85;;;;;;;9.33;68.38;102892.06;4970590;28;20390;-61
2022/05/09 01:19:40;;;;;;;13.68;3.90;;;;;;;9.29;68.63;102888.41;4971572;28;20092;-60
2022/05/09 01:22:24;;;;;;;13.07;3.90;;;;;;;9.28;68.49;102893.53;4960341;28;20122;-60
2022/05/09 01:24:50;;;;;;;12.75;3.90;;;;;;;9.21;68.69;102889.72;4976496;28;20046;-59
2022/05/09 01:27:16;;;;;;;9.88;3.58;;;;;;;9.18;68.90;102889.56;4966879;28;20068;-61
2022/05/09 01:30:06;;;;;;;12.82;4.00;;;;;;;9.16;69.16;102888.59;4970093;28;20046;-59
2022/05/09 01:32:34;;;;;;;11.60;3.75;;;;;;;9.11;69.38;102887.47;4972275;28;20073;-60
2022/05/09 01:35:23;;;;;;;11.25;3.88;;;;;;;9.06;69.68;102878.53;4963344;28;20092;-59
2022/05/09 01:38:04;;;;;;;11.27;3.95;;;;;;;9.01;69.67;102880.03;4971048;28;20129;-59
2022/05/09 01:40:29;;;;;;;13.55;4.45;;;;;;;8.96;70.28;102869.34;4972161;28;20054;-59
2022/05/09 01:42:55;;;;;;;12.63;3.92;;;;;;;8.95;70.34;102865.00;4977748;28;20045;-59
2022/05/09 01:45:20;;;;;;;11.35;4.13;;;;;;;8.91;70.17;102860.41;4969027;28;20053;-60
2022/05/09 01:50:30;;;;;;;10.15;4.00;;;;;;;8.89;70.41;102862.06;4966049;28;20413;-59
2022/05/09 01:52:57;;;;;;;14.90;4.35;;;;;;;8.87;70.99;102866.28;4973157;28;20041;-58
2022/05/09 01:55:22;;;;;;;14.20;4.15;;;;;;;8.88;71.16;102859.38;4969302;28;21152;-60
2022/05/09 01:57:49;;;;;;;12.63;4.38;;;;;;;8.86;70.88;102863.59;4982373;28;20538;-59
2022/05/09 02:00:15;;;;;;;12.68;4.05;;;;;;;8.85;70.71;102854.91;4970620;28;20038;-59
2022/05/09 02:02:41;;;;;;;13.45;4.38;;;;;;;8.84;71.31;102865.25;4968810;28;20464;-60
2022/05/09 02:05:07;;;;;;;10.35;3.80;;;;;;;8.84;70.99;102867.84;4967001;28;20038;-59
2022/05/09 02:07:33;;;;;;;16.52;4.03;;;;;;;8.85;70.77;102861.81;4968935;28;20054;-60
2022/05/09 02:09:59;;;;;;;10.63;3.83;;;;;;;8.83;71.05;102860.84;4965836;28;20505;-58
2022/05/09 02:12:24;;;;;;;11.45;3.80;;;;;;;8.77;71.20;102860.53;4974677;28;20142;-60
2022/05/09 02:14:49;;;;;;;8.80;3.53;;;;;;;8.75;71.11;102863.06;4975061;28;20038;-60
2022/05/09 02:17:16;;;;;;;12.85;4.25;;;;;;;8.68;71.42;102870.44;4965588;28;20139;-60
2022/05/09 02:19:42;;;;;;;11.82;4.07;;;;;;;8.69;71.72;102867.03;4964462;28;20134;-59
2022/05/09 02:22:11;;;;;;;12.55;4.50;;;;;;;8.66;71.52;102867.75;4976060;28;20050;-59
2022/05/09 02:24:39;;;;;;;14.15;4.40;;;;;;;8.67;71.91;102858.25;4962016;28;20093;-59
2022/05/09 02:27:05;;;;;;;9.80;3.80;;;;;;;8.64;71.79;102861.59;4957568;28;20050;-60
2022/05/09 02:29:31;;;;;;;11.27;4.45;;;;;;;8.64;71.86;102864.19;4970261;28;20454;-61
2022/05/09 02:31:57;;;;;;;12.85;4.13;;;;;;;8.59;72.23;102857.88;4974247;28;20064;-60
2022/05/09 02:34:23;;;;;;;9.65;4.15;;;;;;;8.59;72.11;102864.78;4977246;28;20061;-60
2022/05/09 02:36:48;;;;;;;14.90;4.50;;;;;;;8.57;72.44;102859.50;4975229;28;20038;-60
2022/05/09 02:39:22;;;;;;;15.68;4.50;;;;;;;8.61;72.34;102857.94;4976102;28;20497;-59
2022/05/09 02:41:48;;;;;;;11.43;4.20;;;;;;;8.63;71.68;102864.13;4976052;28;20699;-58
2022/05/09 02:44:13;;;;;;;15.48;4.57;;;;;;;8.62;72.23;102859.72;4977000;28;20737;-59
2022/05/09 02:46:42;;;;;;;11.85;4.43;;;;;;;8.57;72.39;102856.00;4975770;28;20056;-59
2022/05/09 02:49:08;;;;;;;17.60;4.53;;;;;;;8.54;72.77;102854.09;4973913;28;20054;-59
2022/05/09 02:51:36;;;;;;;19.30;4.30;;;;;;;8.51;73.03;102847.06;4975160;28;20038;-59
2022/05/09 02:54:01;;;;;;;15.90;4.72;;;;;;;8.50;72.98;102842.66;4980452;28;20042;-59
2022/05/09 02:56:27;;;;;;;13.32;4.63;;;;;;;8.51;72.58;102852.25;4974008;28;20046;-59
2022/05/09 02:58:53;;;;;;;11.82;5.00;;;;;;;8.57;72.11;102845.59;4962347;28;20116;-57
2022/05/09 03:01:18;;;;;;;12.40;4.75;;;;;;;8.55;72.55;102840.31;4971057;28;20299;-60
2022/05/09 03:06:28;;;;;;;15.70;5.00;;;;;;;8.55;72.61;102837.69;4962511;28;20112;-60
2022/05/09 03:08:54;;;;;;;16.23;5.40;;;;;;;8.55;72.51;102838.59;4978526;28;20228;-59
2022/05/09 03:11:19;;;;;;;12.52;4.57;;;;;;;8.55;72.18;102840.31;4965522;28;20608;-58
2022/05/09 03:13:44;;;;;;;16.73;5.03;;;;;;;8.49;72.09;102839.97;4977009;28;20053;-59
2022/05/09 03:16:10;;;;;;;13.82;4.82;;;;;;;8.50;72.07;102833.97;4980506;28;20049;-59
2022/05/09 03:18:36;;;;;;;15.73;4.85;;;;;;;8.45;72.27;102833.75;4975257;28;20168;-59
2022/05/09 03:21:01;;;;;;;15.45;5.30;;;;;;;8.45;72.19;102838.03;4972036;28;20441;-61
2022/05/09 03:23:26;;;;;;;12.25;4.47;;;;;;;8.46;72.16;102834.63;4980540;28;20066;-60
2022/05/09 03:25:52;;;;;;;14.93;4.90;;;;;;;8.45;72.57;102827.66;4972152;28;20405;-59
2022/05/09 03:28:20;;;;;;;10.63;4.82;;;;;;;8.43;72.31;102824.94;4972568;28;20046;-59
2022/05/09 03:30:48;;;;;;;16.60;5.20;;;;;;;8.43;72.18;102830.16;4978817;28;20034;-59
2022/05/09 03:33:14;;;;;;;17.00;5.35;;;;;;;8.39;72.18;102824.72;4974672;28;20046;-60
2022/05/09 03:35:40;;;;;;;12.90;5.10;;;;;;;8.34;72.39;102828.78;4953322;28;20030;-59
2022/05/09 03:38:06;;;;;;;13.10;4.80;;;;;;;8.31;72.37;102820.81;4969097;28;20049;-58
2022/05/09 03:40:31;;;;;;;15.93;5.00;;;;;;;8.27;72.16;102818.84;4975835;28;20100;-60
2022/05/09 03:42:59;;;;;;;16.77;5.38;;;;;;;8.24;72.91;102813.47;4976845;28;20050;-59
2022/05/09 03:45:25;;;;;;;16.38;5.07;;;;;;;8.19;73.04;102820.13;4975135;28;20042;-60
2022/05/09 03:47:51;;;;;;;14.68;5.03;;;;;;;8.12;73.20;102819.78;4980588;28;20052;-57
2022/05/09 03:50:17;;;;;;;14.55;5.03;;;;;;;8.14;73.28;102812.09;4973268;28;20401;-57
2022/05/09 03:52:42;;;;;;;13.25;4.90;;;;;;;8.17;73.04;102811.38;4970419;28;20412;-59
2022/05/09 03:55:08;;;;;;;16.65;5.18;;;;;;;8.14;73.26;102809.47;4964078;28;20050;-59
2022/05/09 03:57:33;;;;;;;13.20;4.97;;;;;;;8.17;73.05;102807.06;4968250;28;20050;-59
2022/05/09 04:00:08;;;;;;;13.10;5.03;;;;;;;8.17;73.09;102806.16;4973502;28;20857;-59
2022/05/09 04:02:33;;;;;;;13.50;4.95;;;;;;;8.15;73.37;102799.19;4972664;28;20562;-60
2022/05/09 04:04:59;;;;;;;11.80;5.07;;;;;;;8.18;73.41;102802.72;4947824;28;20054;-60
2022/05/09 04:07:24;;;;;;;15.90;4.95;;;;;;;8.17;73.43;102808.78;4967846;28;20053;-59
2022/05/09 04:09:50;;;;;;;11.43;4.72;;;;;;;8.13;73.51;102805.09;4966563;28;20053;-59
2022/05/09 04:12:17;;;;;;;13.70;4.50;;;;;;;8.19;73.46;102805.41;4973337;28;20429;-59
2022/05/09 04:17:26;;;;;;;15.52;5.03;;;;;;;8.21;73.12;102805.50;4974653;28;20132;-58
2022/05/09 04:19:52;;;;;;;18.40;5.00;;;;;;;8.24;73.09;102806.56;4968175;28;20045;-59
2022/05/09 04:22:17;;;;;;;15.40;4.82;;;;;;;8.27;73.03;102803.25;4979083;28;20069;-60
2022/05/09 04:24:43;;;;;;;13.40;5.03;;;;;;;8.28;72.99;102797.25;4975824;28;20073;-60
2022/05/09 04:27:08;;;;;;;13.18;4.78;;;;;;;8.31;72.92;102793.13;4971813;28;20145;-59
2022/05/09 04:29:34;;;;;;;16.67;4.82;;;;;;;8.38;72.70;102797.84;4978649;28;20040;-60
2022/05/09 04:32:00;;;;;;;18.58;5.25;;;;;;;8.42;72.48;102798.88;4964229;28;21046;-61
2022/05/09 04:34:25;;;;;;;14.43;5.18;;;;;;;8.46;72.08;102793.03;4969227;28;20426;-60
2022/05/09 04:36:51;;;;;;;14.48;5.40;;;;;;;8.53;71.67;102798.66;4971149;28;20094;-60
2022/05/09 04:39:16;;;;;;;9.88;4.53;;;;;;;8.63;71.69;102789.59;4964256;28;20798;-60
2022/05/09 04:41:42;;;;;;;12.77;5.00;;;;;;;8.69;71.46;102789.03;4974272;28;20046;-59
2022/05/09 04:44:08;;;;;;;13.80;5.20;;;;;;;8.87;71.35;102787.38;4968648;28;20113;-61
2022/05/09 04:46:34;;;;;;;15.68;4.60;;;;;;;9.02;70.71;102782.06;4972650;28;20056;-59
2022/05/09 04:48:59;;;;;;;18.38;5.00;;;;;;;9.27;69.61;102775.50;4975248;28;20054;-60
2022/05/09 04:51:25;;;;;;;14.05;5.20;;;;;;;9.54;68.75;102778.56;4968079;28;20097;-60
2022/05/09 04:53:50;;;;;;;15.13;5.45;;;;;;;9.94;68.20;102785.66;4979467;28;20112;-59
2022/05/09 04:56:17;;;;;;;13.48;4.65;;;;;;;10.49;65.64;102782.13;4975684;28;20080;-61
2022/05/09 04:58:42;;;;;;;13.82;4.70;;;;;;;11.17;64.58;102775.44;4977788;28;20044;-59
2022/05/09 05:01:08;;;;;;;13.25;4.72;;;;;;;11.57;60.77;102771.00;4973178;28;20494;-60
2022/05/09 05:03:34;;;;;;;17.58;5.20;;;;;;;11.74;61.25;102775.19;4966344;28;24363;-60
2022/05/09 05:05:59;;;;;;;17.00;5.25;;;;;;;11.44;60.88;102776.56;4970264;28;20128;-60
2022/05/09 05:08:24;;;;;;;17.45;5.00;;;;;;;11.28;61.16;102775.03;4974322;28;20065;-59
2022/05/09 05:10:53;;;;;;;17.73;5.45;;;;;;;11.25;61.48;102774.94;4973710;28;20043;-59
2022/05/09 05:13:25;;;;;;;13.95;4.93;;;;;;;11.16;61.20;102777.16;4963452;28;20512;-58
2022/05/09 05:15:52;;;;;;;15.40;4.93;;;;;;;10.96;61.72;102778.06;4976860;28;20163;-59
2022/05/09 05:18:21;;;;;;;17.17;5.60;;;;;;;10.75;63.41;102778.03;4969980;28;20432;-60
2022/05/09 05:20:47;;;;;;;13.65;5.20;;;;;;;10.70;63.73;102776.06;4970094;28;20129;-60
2022/05/09 05:23:13;;;;;;;12.60;5.38;;;;;;;10.64;64.15;102771.47;4982551;28;20295;-60
2022/05/09 05:25:40;;;;;;;13.77;5.18;;;;;;;10.61;63.81;102770.47;4967025;28;20048;-60
2022/05/09 05:28:07;;;;;;;16.58;5.32;;;;;;;10.69;62.95;102763.84;4972563;28;20034;-59
2022/05/09 05:30:32;;;;;;;14.77;5.18;;;;;;;10.68;63.77;102767.25;4976893;28;20192;-59
2022/05/09 05:32:58;;;;;;;14.93;5.50;;;;;;;10.65;63.68;102765.44;4963799;28;20134;-59
2022/05/09 05:35:24;;;;;;;16.30;5.38;;;;;;;10.77;63.45;102767.69;4984750;28;20504;-60
2022/05/09 05:37:50;;;;;;;17.08;5.93;;;;;;;10.76;63.38;102761.56;4978512;28;20048;-60
2022/05/09 05:40:17;;;;;;;17.02;5.60;;;;;;;10.78;63.77;102769.47;4972120;28;20042;-59
2022/05/09 05:42:44;;;;;;;21.95;6.38;;;;;;;10.75;63.69;102767.59;4982804;28;20455;-59
2022/05/09 05:45:11;;;;;;;18.20;5.68;;;;;;;10.73;63.06;102778.81;4965205;28;20042;-59
2022/05/09 05:47:38;;;;;;;22.08;6.20;;;;;;;10.92;63.10;102779.63;4955759;28;20041;-60
2022/05/09 05:50:06;;;;;;;13.68;5.57;;;;;;;11.11;62.68;102776.09;4971114;28;20046;-59
2022/05/09 05:52:31;;;;;;;16.55;5.78;;;;;;;11.10;62.62;102770.81;4984519;28;20363;-60
2022/05/09 05:54:57;;;;;;;19.25;5.75;;;;;;;11.07;62.25;102770.69;4970161;28;20173;-59
2022/05/09 05:57:25;;;;;;;15.20;5.63;;;;;;;11.24;62.03;102773.16;4971854;28;20528;-59
2022/05/09 05:59:54;;;;;;;18.60;5.38;;;;;;;11.65;61.49;102776.50;4975940;28;20041;-59
2022/05/09 06:02:20;;;;;;;16.70;5.93;;;;;;;12.19;60.30;102778.69;4974200;28;20603;-60
2022/05/09 06:04:46;;;;;;;22.73;6.13;;;;;;;12.56;57.97;102782.63;4974255;28;20141;-60
2022/05/09 06:07:12;;;;;;;21.00;5.68;;;;;;;13.58;56.24;102778.22;4959176;28;20404;-60
2022/05/09 06:09:39;;;;;;;16.15;5.65;;;;;;;14.84;51.82;102771.41;4971359;28;20050;-60
2022/05/09 06:12:05;;;;;;;16.55;5.90;;;;;;;14.93;50.47;102774.28;4980425;28;20355;-59
2022/05/09 06:14:30;;;;;;;15.20;5.35;;;;;;;16.81;46.71;102767.94;4974238;28;20141;-59
2022/05/09 06:16:58;;;;;;;14.35;5.30;;;;;;;17.54;45.03;102769.13;4982394;28;20061;-59
2022/05/09 06:19:24;;;;;;;13.93;5.32;;;;;;;18.12;42.67;102777.88;4966921;28;20044;-60
2022/05/09 06:21:51;;;;;;;16.50;5.63;;;;;;;18.04;42.84;102774.25;4977105;28;20050;-60
2022/05/09 06:24:17;;;;;;;14.50;5.07;;;;;;;19.41;40.07;102773.91;4979380;28;20046;-59
2022/05/09 06:26:44;;;;;;;14.40;5.07;;;;;;;19.39;40.68;102773.88;4976899;28;20049;-59
2022/05/09 06:29:09;;;;;;;14.70;5.10;;;;;;;20.47;39.37;102771.84;4959741;28;20141;-59
2022/05/09 06:31:36;;;;;;;17.75;5.15;;;;;;;21.18;37.46;102767.53;4979779;28;20056;-59
2022/05/09 06:34:02;;;;;;;12.85;4.80;;;;;;;21.88;35.48;102770.06;4966310;28;20797;-59
2022/05/09 06:36:32;;;;;;;17.65;4.82;;;;;;;21.19;35.49;102774.59;4963805;28;20042;-58
2022/05/09 06:38:58;;;;;;;10.02;4.22;;;;;;;20.89;35.35;102771.03;4970122;28;20037;-59
2022/05/09 06:41:24;;;;;;;13.27;4.57;;;;;;;21.73;34.29;102774.50;4975396;28;20209;-58
2022/05/09 06:43:49;;;;;;;12.88;4.60;;;;;;;22.11;33.84;102771.75;4977912;28;20488;-58
2022/05/09 06:46:14;;;;;;;12.30;4.72;;;;;;;20.84;36.89;102769.25;4975357;28;20061;-59
2022/05/09 06:48:40;;;;;;;15.18;5.18;;;;;;;20.11;36.49;102774.34;4958523;28;20057;-58
2022/05/09 06:51:05;;;;;;;12.50;5.07;;;;;;;20.30;37.63;102764.69;4978935;28;20038;-60
2022/05/09 06:53:30;;;;;;;12.73;4.70;;;;;;;20.32;37.41;102771.78;4974971;28;20642;-60
2022/05/09 06:55:56;;;;;;;13.20;4.95;;;;;;;20.20;38.01;102769.94;4985370;28;20046;-59
2022/05/09 06:58:22;;;;;;;13.13;4.78;;;;;;;20.13;39.12;102767.25;4976717;28;20073;-59
2022/05/09 07:00:48;;;;;;;14.82;5.00;;;;;;;20.29;38.17;102768.22;4974795;28;20413;-59
2022/05/09 07:03:14;;;;;;;18.23;5.22;;;;;;;20.37;37.04;102771.81;4976980;28;20274;-60
2022/05/09 07:05:43;;;;;;;14.07;5.35;;;;;;;20.09;38.39;102763.72;4981708;28;20037;-60
2022/05/09 07:08:09;;;;;;;15.23;5.40;;;;;;;20.20;38.02;102763.75;4976589;28;20042;-60
2022/05/09 07:10:35;;;;;;;14.63;5.72;;;;;;;20.35;38.35;102768.28;4972008;28;20498;-60
2022/05/09 07:13:02;;;;;;;17.70;5.30;;;;;;;20.95;37.26;102765.72;4972216;28;20042;-59
2022/05/09 07:15:29;;;;;;;14.13;5.15;;;;;;;21.81;35.66;102770.06;4966771;28;20052;-61
2022/05/09 07:17:55;;;;;;;15.65;5.50;;;;;;;22.67;34.07;102757.28;4968715;28;20081;-60
2022/05/09 07:20:22;;;;;;;12.70;5.45;;;;;;;21.60;33.99;102770.13;4973753;28;20425;-60
2022/05/09 07:22:51;;;;;;;17.77;5.43;;;;;;;21.46;36.46;102763.97;4981212;28;20116;-60
2022/05/09 07:25:17;;;;;;;25.25;5.55;;;;;;;21.21;36.41;102765.78;4969121;28;20395;-59
2022/05/09 07:27:43;;;;;;;12.07;5.40;;;;;;;21.72;34.76;102761.22;4974952;28;20038;-60
2022/05/09 07:30:11;;;;;;;19.65;6.45;;;;;;;21.05;35.37;102767.50;4977111;28;20181;-59
2022/05/09 07:32:36;;;;;;;13.90;5.75;;;;;;;21.38;34.98;102760.44;4971309;28;20064;-59
2022/05/09 07:35:03;;;;;;;16.48;6.20;;;;;;;21.29;35.54;102757.78;4966935;28;20038;-60
2022/05/09 07:37:29;;;;;;;14.20;5.72;;;;;;;21.83;36.22;102762.97;4977662;28;20046;-61
2022/05/09 07:39:54;;;;;;;14.10;5.30;;;;;;;22.35;34.88;102751.28;4975265;28;20093;-59
2022/05/09 07:42:20;;;;;;;14.30;5.68;;;;;;;22.31;34.79;102757.50;4975279;28;20141;-59
2022/05/09 07:44:45;;;;;;;14.45;5.88;;;;;;;22.52;33.11;102746.72;4972510;28;20046;-59
2022/05/09 07:47:10;;;;;;;12.48;4.97;;;;;;;22.53;33.09;102753.81;4949279;28;20304;-60
2022/05/09 07:49:36;;;;;;;14.32;5.88;;;;;;;22.33;34.00;102756.59;4975015;28;20120;-58
2022/05/09 07:52:02;;;;;;;15.13;5.90;;;;;;;22.52;33.46;102752.03;4972163;28;20050;-60
2022/05/09 07:54:28;;;;;;;14.70;5.57;;;;;;;22.63;33.54;102745.75;4968610;28;20120;-60
2022/05/09 07:56:53;;;;;;;11.35;4.82;;;;;;;23.72;32.58;102745.72;4977266;28;20512;-60
2022/05/09 07:59:20;;;;;;;14.70;5.97;;;;;;;23.61;30.33;102739.63;4968854;28;20210;-61
2022/05/09 08:01:45;;;;;;;15.15;5.70;;;;;;;23.69;31.91;102743.97;4981218;28;20065;-62
2022/05/09 08:04:11;;;;;;;14.43;5.65;;;;;;;23.21;33.15;102742.69;4973351;28;20536;-60
2022/05/09 08:06:36;;;;;;;10.70;5.43;;;;;;;23.14;33.77;102732.97;4973223;28;20056;-60
2022/05/09 08:09:04;;;;;;;16.20;6.28;;;;;;;23.10;32.62;102733.91;4972251;28;20524;-62
2022/05/09 08:11:29;;;;;;;18.50;5.38;;;;;;;24.80;29.74;102737.13;4973297;28;20330;-61
2022/05/09 08:13:55;;;;;;;16.10;5.47;;;;;;;24.15;30.20;102733.59;4968349;28;20050;-60
2022/05/09 08:16:20;;;;;;;13.18;5.75;;;;;;;23.35;33.61;102746.09;4965708;28;20041;-59
2022/05/09 08:18:49;;;;;;;11.27;5.57;;;;;;;23.62;31.38;102738.72;4973977;28;20042;-61
2022/05/09 08:21:15;;;;;;;13.77;5.50;;;;;;;22.81;32.58;102739.47;4968788;28;20320;-60
2022/05/09 08:23:40;;;;;;;12.68;5.40;;;;;;;22.54;33.44;102739.63;4977223;28;20049;-60
2022/05/09 08:26:06;;;;;;;17.25;5.95;;;;;;;21.98;33.80;102747.91;4970765;28;20064;-61
2022/05/09 08:28:31;;;;;;;14.35;5.57;;;;;;;21.92;36.72;102735.50;4972305;28;20293;-60
2022/05/09 08:30:57;;;;;;;19.30;5.70;;;;;;;21.75;35.52;102737.34;4967346;28;20046;-58
2022/05/09 08:33:26;;;;;;;12.10;5.40;;;;;;;21.32;36.40;102741.88;4962939;28;20046;-59
2022/05/09 08:35:53;;;;;;;12.80;5.20;;;;;;;21.28;37.58;102738.34;4964401;28;20411;-60
2022/05/09 08:38:19;;;;;;;12.85;5.47;;;;;;;21.06;37.17;102737.44;4973474;28;20053;-59
2022/05/09 08:41:14;;;;;;;14.50;5.53;;;;;;;20.82;35.94;102732.13;4975440;28;20046;-60
2022/05/09 08:44:01;;;;;;;12.30;5.60;;;;;;;20.83;35.36;102733.91;4964979;28;20790;-59
2022/05/09 08:46:40;;;;;;;14.57;5.60;;;;;;;21.14;34.37;102729.47;4965261;28;20491;-60
2022/05/09 08:49:29;;;;;;;14.88;5.35;;;;;;;21.38;34.29;102732.13;4981037;28;20046;-59
2022/05/09 08:52:12;;;;;;;13.82;5.20;;;;;;;21.53;36.18;102730.34;4951601;28;20569;-60
2022/05/09 08:54:38;;;;;;;13.40;5.32;;;;;;;21.51;38.27;102730.34;4967927;28;20057;-60
2022/05/09 08:57:07;;;;;;;13.13;5.38;;;;;;;21.36;36.86;102727.72;4962515;28;20045;-59
2022/05/09 08:59:47;;;;;;;12.70;4.68;;;;;;;21.78;33.75;102716.97;4975539;28;20407;-59
2022/05/09 09:02:19;;;;;;;11.88;5.28;;;;;;;21.78;36.84;102724.94;4969618;28;20038;-60
2022/05/09 09:04:53;;;;;;;10.77;4.60;;;;;;;21.34;34.15;102724.19;4962948;28;20192;-59
2022/05/09 09:07:25;;;;;;;;;;;;;;;21.67;33.12;102715.25;4965066;28;20045;-59
2022/05/09 09:10:22;;;;;;;10.30;5.07;;;;;;;21.93;32.37;102716.03;4965521;28;20084;-59
2022/05/09 09:13:29;;;;;;;11.95;5.00;;;;;;;22.05;32.82;102708.03;4965534;28;20484;-60
2022/05/09 09:16:11;;;;;;;17.17;4.90;;;;;;;22.14;35.94;102707.13;4963613;28;20613;-59
2022/05/09 09:18:36;;;;;;;10.23;3.80;;;;;;;21.81;31.82;102700.16;4974160;28;20325;-59
2022/05/09 09:21:22;;;;;;;9.82;4.50;;;;;;;21.58;32.17;102697.59;4975976;28;20034;-60
2022/05/09 09:24:01;;;;;;;9.02;2.92;;;;;;;21.70;33.45;102694.91;4966536;28;20170;-59
2022/05/09 09:26:52;;;;;;;10.88;4.68;;;;;;;21.66;34.13;102693.13;4983678;28;20181;-59
2022/05/09 09:29:25;;;;;;;13.73;4.38;;;;;;;22.02;34.65;102692.09;4977062;28;20142;-61
2022/05/09 09:32:09;;;;;;;14.75;4.53;;;;;;;21.92;33.04;102689.47;4960493;28;20148;-59
2022/05/09 09:35:02;;;;;;;11.65;3.38;;;;;;;21.91;31.87;102687.72;4965874;28;20372;-59
2022/05/09 09:37:43;;;;;;;6.85;2.92;;;;;;;21.96;31.04;102684.16;4969152;28;20033;-59
2022/05/09 09:40:09;;;;;;;7.03;2.58;;;;;;;22.03;31.57;102685.91;4977159;28;20045;-60
2022/05/09 09:42:35;;;;;;;8.82;3.42;;;;;;;21.93;31.36;102685.94;4971462;28;20180;-60
2022/05/09 09:45:03;;;;;;;9.88;3.63;;;;;;;21.85;32.04;102685.97;4972868;28;20580;-60
2022/05/09 09:47:29;;;;;;;8.73;3.38;;;;;;;22.10;32.66;102670.81;4972844;28;20417;-60
2022/05/09 09:50:33;;;;;;;7.28;2.90;;;;;;;22.46;30.58;102670.56;4966523;28;20487;-59
2022/05/09 09:53:00;;;;;;;9.10;3.15;;;;;;;22.51;30.63;102678.50;4930598;28;20050;-60
2022/05/09 09:55:29;;;;;;;8.07;2.30;;;;;;;22.55;28.75;102669.63;4927717;28;20099;-59
2022/05/09 09:57:57;;;;;;;6.18;2.40;;;;;;;22.85;29.39;102669.41;4942833;28;20414;-60
2022/05/09 10:00:30;;;;;;;6.53;2.33;;;;;;;23.00;29.15;102673.69;4976205;28;20362;-59
2022/05/09 10:03:15;;;;;;;6.72;2.50;;;;;;;22.62;29.36;102674.03;4961159;28;20053;-58
2022/05/09 10:05:43;;;;;;;7.43;2.28;;;;;;;22.50;30.23;102667.03;4963496;28;20750;-60
2022/05/09 10:08:22;;;;;;;7.47;2.30;;;;;;;22.60;30.54;102666.03;4973172;28;20053;-60
2022/05/09 10:11:08;;;;;;;6.07;2.25;;;;;;;22.38;28.38;102661.81;4970656;28;20547;-59
2022/05/09 10:13:46;;;;;;;6.50;2.30;;;;;;;22.47;30.17;102659.06;4954994;28;20297;-59
2022/05/09 10:16:23;;;;;;;10.60;3.33;;;;;;;22.45;30.71;102660.84;4970645;28;20073;-59
2022/05/09 10:18:50;;;;;;;10.82;2.92;;;;;;;22.64;32.00;102659.78;4966799;28;20034;-61
2022/05/09 10:27:06;;;;;;;8.45;2.90;;;;;;;22.93;30.41;102653.38;4975437;28;20057;-60
2022/05/09 10:29:37;;;;;;;5.68;2.65;;;;;;;23.27;31.90;102648.59;4974583;28;20049;-59
2022/05/09 10:32:08;;;;;;;9.45;3.40;;;;;;;23.37;28.50;102650.22;4975035;28;20034;-60
2022/05/09 10:34:40;;;;;;;8.50;3.55;;;;;;;23.41;27.83;102646.66;4971940;28;20169;-58
2022/05/09 10:37:24;;;;;;;10.82;3.88;;;;;;;23.00;30.37;102642.66;4970592;28;20338;-60
2022/05/09 10:40:01;;;;;;;13.05;3.67;;;;;;;22.54;30.57;102625.34;4973384;28;20030;-59
2022/05/09 10:42:39;;;;;;;10.57;4.00;;;;;;;22.77;29.67;102630.47;4971884;28;20563;-60
2022/05/09 10:45:19;;;;;;;10.98;3.58;;;;;;;22.95;32.12;102631.19;4966112;28;20054;-59
2022/05/09 10:48:13;;;;;;;11.48;3.70;;;;;;;23.00;32.46;102623.16;4969864;28;20053;-60
2022/05/09 10:51:16;;;;;;;9.23;3.47;;;;;;;23.29;32.20;102623.72;4928466;28;20854;-59
2022/05/09 10:54:05;;;;;;;7.25;3.80;;;;;;;23.22;30.70;102622.03;4929939;28;20384;-58
2022/05/09 10:56:49;;;;;;;9.75;3.72;;;;;;;23.33;30.82;102632.53;4932985;28;20626;-61
2022/05/09 10:59:26;;;;;;;9.75;3.63;;;;;;;23.26;30.49;102628.19;4935780;28;20074;-59
2022/05/09 11:02:05;;;;;;;8.43;3.72;;;;;;;22.69;29.75;102634.97;4940772;28;20109;-59
2022/05/09 11:04:32;;;;;;;8.45;3.47;;;;;;;23.12;29.86;102623.00;4941503;28;20039;-60
2022/05/09 11:07:30;;;;;;;7.88;3.53;;;;;;;23.13;29.02;102626.56;4951538;28;20058;-59
2022/05/09 11:10:06;;;;;;;7.30;3.40;;;;;;;22.95;31.32;102623.19;4931181;28;20047;-59
2022/05/09 11:13:14;;;;;;;9.02;2.90;;;;;;;23.33;31.10;102612.13;4932528;28;20661;-61
2022/05/09 11:15:54;;;;;;;9.57;3.20;;;;;;;23.58;29.98;102603.88;4923472;28;20051;-59
2022/05/09 11:18:26;;;;;;;9.35;3.10;;;;;;;23.62;29.05;102614.47;4931231;28;20038;-59
2022/05/09 11:21:02;;;;;;;9.43;3.60;;;;;;;23.22;30.74;102616.72;4935218;28;20286;-60
2022/05/09 11:24:02;;;;;;;7.85;3.10;;;;;;;23.38;29.38;102606.75;4924853;28;20475;-60
2022/05/09 11:26:43;;;;;;;6.30;2.88;;;;;;;23.66;30.06;102602.00;4939163;28;20704;-60
2022/05/09 11:29:52;;;;;;;8.05;3.13;;;;;;;23.92;30.04;102606.94;4937199;28;20382;-59
